sensor_id;sensor_type;location;lat;lon;timestamp;temperature;humidity
70762;DHT22;58360;0.000;0.000;2023-10-13T00:00:21;19.30;99.90
70762;DHT22;58360;0.000;0.000;2023-10-13T00:02:58;19.10;99.90
70762;DHT22;58360;0.000;0.000;2023-10-13T00:05:27;19.10;99.90
70762;DHT22;58360;0.000;0.000;2023-10-13T00:07:53;19.10;99.90
70762;DHT22;58360;0.000;0.000;2023-10-13T00:10:18;19.10;99.90
70762;DHT22;58360;0.000;0.000;2023-10-13T00:12:44;19.10;99.90
70762;DHT22;58360;0.000;0.000;2023-10-13T00:15:18;19.10;99.90
70762;DHT22;58360;0.000;0.000;2023-10-13T00:17:46;19.00;99.90
70762;DHT22;58360;0.000;0.000;2023-10-13T00:20:11;18.90;99.90
70762;DHT22;58360;0.000;0.000;2023-10-13T00:22:53;18.90;99.90
70762;DHT22;58360;0.000;0.000;2023-10-13T00:25:22;18.90;99.90
70762;DHT22;58360;0.000;0.000;2023-10-13T00:27:52;19.00;99.90
70762;DHT22;58360;0.000;0.000;2023-10-13T00:30:18;18.90;99.90
70762;DHT22;58360;0.000;0.000;2023-10-13T00:32:58;18.90;99.90
70762;DHT22;58360;0.000;0.000;2023-10-13T00:35:28;19.10;99.90
70762;DHT22;58360;0.000;0.000;2023-10-13T00:37:55;19.30;99.90
70762;DHT22;58360;0.000;0.000;2023-10-13T00:40:22;19.20;99.90
70762;DHT22;58360;0.000;0.000;2023-10-13T00:43:00;19.10;99.90
70762;DHT22;58360;0.000;0.000;2023-10-13T00:45:52;19.00;99.90
70762;DHT22;58360;0.000;0.000;2023-10-13T00:48:32;19.10;99.90
70762;DHT22;58360;0.000;0.000;2023-10-13T00:51:07;19.00;99.90
70762;DHT22;58360;0.000;0.000;2023-10-13T00:53:34;19.00;99.90
70762;DHT22;58360;0.000;0.000;2023-10-13T00:56:01;18.90;99.90
70762;DHT22;58360;0.000;0.000;2023-10-13T00:58:32;18.90;99.90
70762;DHT22;58360;0.000;0.000;2023-10-13T01:00:59;18.90;99.90
70762;DHT22;58360;0.000;0.000;2023-10-13T01:03:49;18.80;99.90
70762;DHT22;58360;0.000;0.000;2023-10-13T01:06:16;18.90;99.90
70762;DHT22;58360;0.000;0.000;2023-10-13T01:08:44;18.90;99.90
70762;DHT22;58360;0.000;0.000;2023-10-13T01:11:10;18.90;99.90
70762;DHT22;58360;0.000;0.000;2023-10-13T01:13:36;18.90;99.90
70762;DHT22;58360;0.000;0.000;2023-10-13T01:16:02;18.80;99.90
70762;DHT22;58360;0.000;0.000;2023-10-13T01:18:33;18.90;99.90
70762;DHT22;58360;0.000;0.000;2023-10-13T01:21:05;18.90;99.90
70762;DHT22;58360;0.000;0.000;2023-10-13T01:23:31;18.90;99.90
70762;DHT22;58360;0.000;0.000;2023-10-13T01:26:03;18.90;99.90
70762;DHT22;58360;0.000;0.000;2023-10-13T01:28:31;18.90;99.90
70762;DHT22;58360;0.000;0.000;2023-10-13T01:31:03;18.90;99.90
70762;DHT22;58360;0.000;0.000;2023-10-13T01:33:28;18.90;99.90
70762;DHT22;58360;0.000;0.000;2023-10-13T01:35:57;18.90;99.90
70762;DHT22;58360;0.000;0.000;2023-10-13T01:38:24;19.00;99.90
70762;DHT22;58360;0.000;0.000;2023-10-13T01:40:54;18.90;99.90
70762;DHT22;58360;0.000;0.000;2023-10-13T01:43:21;19.00;99.90
70762;DHT22;58360;0.000;0.000;2023-10-13T01:45:48;19.00;99.90
70762;DHT22;58360;0.000;0.000;2023-10-13T01:48:17;19.00;99.90
70762;DHT22;58360;0.000;0.000;2023-10-13T01:50:46;18.90;99.90
70762;DHT22;58360;0.000;0.000;2023-10-13T01:53:21;18.90;99.90
70762;DHT22;58360;0.000;0.000;2023-10-13T01:55:48;18.90;99.90
70762;DHT22;58360;0.000;0.000;2023-10-13T01:58:14;19.00;99.90
70762;DHT22;58360;0.000;0.000;2023-10-13T02:00:41;19.00;99.90
70762;DHT22;58360;0.000;0.000;2023-10-13T02:03:07;18.90;99.90
70762;DHT22;58360;0.000;0.000;2023-10-13T02:05:39;18.90;99.90
70762;DHT22;58360;0.000;0.000;2023-10-13T02:08:08;19.00;99.90
70762;DHT22;58360;0.000;0.000;2023-10-13T02:10:36;19.00;99.90
70762;DHT22;58360;0.000;0.000;2023-10-13T02:13:11;19.00;99.90
70762;DHT22;58360;0.000;0.000;2023-10-13T02:15:40;19.00;99.90
70762;DHT22;58360;0.000;0.000;2023-10-13T02:18:08;19.00;99.90
70762;DHT22;58360;0.000;0.000;2023-10-13T02:20:34;19.00;99.90
70762;DHT22;58360;0.000;0.000;2023-10-13T02:23:07;18.90;99.90
70762;DHT22;58360;0.000;0.000;2023-10-13T02:25:36;18.90;99.90
70762;DHT22;58360;0.000;0.000;2023-10-13T02:28:08;18.90;99.90
70762;DHT22;58360;0.000;0.000;2023-10-13T02:30:38;18.90;99.90
70762;DHT22;58360;0.000;0.000;2023-10-13T02:33:04;18.80;99.90
70762;DHT22;58360;0.000;0.000;2023-10-13T02:35:31;18.80;99.90
70762;DHT22;58360;0.000;0.000;2023-10-13T02:38:07;18.90;99.90
70762;DHT22;58360;0.000;0.000;2023-10-13T02:40:37;18.90;99.90
70762;DHT22;58360;0.000;0.000;2023-10-13T02:43:03;18.90;99.90
70762;DHT22;58360;0.000;0.000;2023-10-13T02:45:31;19.00;99.90
70762;DHT22;58360;0.000;0.000;2023-10-13T02:47:56;19.10;99.90
70762;DHT22;58360;0.000;0.000;2023-10-13T02:50:42;19.10;99.90
70762;DHT22;58360;0.000;0.000;2023-10-13T02:53:09;19.00;99.90
70762;DHT22;58360;0.000;0.000;2023-10-13T02:55:38;19.10;99.90
70762;DHT22;58360;0.000;0.000;2023-10-13T02:58:04;19.00;99.90
70762;DHT22;58360;0.000;0.000;2023-10-13T03:00:30;19.10;99.90
70762;DHT22;58360;0.000;0.000;2023-10-13T03:02:57;19.00;99.90
70762;DHT22;58360;0.000;0.000;2023-10-13T03:05:26;19.00;99.90
70762;DHT22;58360;0.000;0.000;2023-10-13T03:07:56;19.10;99.90
70762;DHT22;58360;0.000;0.000;2023-10-13T03:10:24;19.10;99.90
70762;DHT22;58360;0.000;0.000;2023-10-13T03:12:54;19.00;99.90
70762;DHT22;58360;0.000;0.000;2023-10-13T03:15:19;19.00;99.90
70762;DHT22;58360;0.000;0.000;2023-10-13T03:17:55;19.10;99.90
70762;DHT22;58360;0.000;0.000;2023-10-13T03:20:20;19.00;99.90
70762;DHT22;58360;0.000;0.000;2023-10-13T03:22:58;19.00;99.90
70762;DHT22;58360;0.000;0.000;2023-10-13T03:25:24;18.90;99.90
70762;DHT22;58360;0.000;0.000;2023-10-13T03:28:02;19.00;99.90
70762;DHT22;58360;0.000;0.000;2023-10-13T03:30:30;19.10;99.90
70762;DHT22;58360;0.000;0.000;2023-10-13T03:33:07;19.10;99.90
70762;DHT22;58360;0.000;0.000;2023-10-13T03:35:50;19.10;99.90
70762;DHT22;58360;0.000;0.000;2023-10-13T03:38:19;19.10;99.90
70762;DHT22;58360;0.000;0.000;2023-10-13T03:40:46;19.10;99.90
70762;DHT22;58360;0.000;0.000;2023-10-13T03:43:20;19.00;99.90
70762;DHT22;58360;0.000;0.000;2023-10-13T03:45:49;19.00;99.90
70762;DHT22;58360;0.000;0.000;2023-10-13T03:48:26;19.10;99.90
70762;DHT22;58360;0.000;0.000;2023-10-13T03:50:55;19.10;99.90
70762;DHT22;58360;0.000;0.000;2023-10-13T03:53:36;19.10;99.90
70762;DHT22;58360;0.000;0.000;2023-10-13T03:56:07;19.00;99.90
70762;DHT22;58360;0.000;0.000;2023-10-13T03:58:51;19.00;99.90
70762;DHT22;58360;0.000;0.000;2023-10-13T04:01:19;19.00;99.90
70762;DHT22;58360;0.000;0.000;2023-10-13T04:03:50;19.10;99.90
70762;DHT22;58360;0.000;0.000;2023-10-13T04:06:45;19.20;99.90
70762;DHT22;58360;0.000;0.000;2023-10-13T04:09:18;19.50;99.90
70762;DHT22;58360;0.000;0.000;2023-10-13T04:14:30;19.60;99.90
70762;DHT22;58360;0.000;0.000;2023-10-13T04:17:14;19.60;99.90
70762;DHT22;58360;0.000;0.000;2023-10-13T04:19:43;19.50;99.90
70762;DHT22;58360;0.000;0.000;2023-10-13T04:22:27;19.60;99.90
70762;DHT22;58360;0.000;0.000;2023-10-13T04:25:11;19.70;99.90
70762;DHT22;58360;0.000;0.000;2023-10-13T04:27:55;19.60;99.90
70762;DHT22;58360;0.000;0.000;2023-10-13T04:33:13;19.50;99.90
70762;DHT22;58360;0.000;0.000;2023-10-13T04:36:04;19.40;99.90
70762;DHT22;58360;0.000;0.000;2023-10-13T04:38:45;19.30;99.90
70762;DHT22;58360;0.000;0.000;2023-10-13T04:41:33;19.20;99.90
70762;DHT22;58360;0.000;0.000;2023-10-13T04:44:09;19.10;99.90
70762;DHT22;58360;0.000;0.000;2023-10-13T04:46:53;19.00;99.90
70762;DHT22;58360;0.000;0.000;2023-10-13T04:49:20;19.10;99.90
70762;DHT22;58360;0.000;0.000;2023-10-13T04:52:04;19.10;99.90
70762;DHT22;58360;0.000;0.000;2023-10-13T04:57:19;19.00;99.90
70762;DHT22;58360;0.000;0.000;2023-10-13T04:59:45;18.90;99.90
70762;DHT22;58360;0.000;0.000;2023-10-13T05:02:29;18.90;99.90
70762;DHT22;58360;0.000;0.000;2023-10-13T05:05:10;18.90;99.90
70762;DHT22;58360;0.000;0.000;2023-10-13T05:07:39;18.90;99.90
70762;DHT22;58360;0.000;0.000;2023-10-13T05:10:23;19.00;99.90
70762;DHT22;58360;0.000;0.000;2023-10-13T05:13:07;19.00;99.90
70762;DHT22;58360;0.000;0.000;2023-10-13T05:15:51;19.00;99.90
70762;DHT22;58360;0.000;0.000;2023-10-13T05:18:35;19.10;99.90
70762;DHT22;58360;0.000;0.000;2023-10-13T05:21:20;19.10;99.90
70762;DHT22;58360;0.000;0.000;2023-10-13T05:24:04;19.00;99.90
70762;DHT22;58360;0.000;0.000;2023-10-13T05:26:48;19.10;99.90
70762;DHT22;58360;0.000;0.000;2023-10-13T05:29:33;19.10;99.90
70762;DHT22;58360;0.000;0.000;2023-10-13T05:32:17;19.00;99.90
70762;DHT22;58360;0.000;0.000;2023-10-13T05:35:01;19.00;99.90
70762;DHT22;58360;0.000;0.000;2023-10-13T05:37:45;19.10;99.90
70762;DHT22;58360;0.000;0.000;2023-10-13T05:40:29;19.00;99.90
70762;DHT22;58360;0.000;0.000;2023-10-13T05:43:13;18.90;99.90
70762;DHT22;58360;0.000;0.000;2023-10-13T05:46:01;19.00;99.90
70762;DHT22;58360;0.000;0.000;2023-10-13T05:49:01;19.00;99.90
70762;DHT22;58360;0.000;0.000;2023-10-13T05:51:28;19.00;99.90
70762;DHT22;58360;0.000;0.000;2023-10-13T05:54:12;19.00;99.90
70762;DHT22;58360;0.000;0.000;2023-10-13T05:59:27;18.90;99.90
70762;DHT22;58360;0.000;0.000;2023-10-13T06:02:12;18.90;99.90
70762;DHT22;58360;0.000;0.000;2023-10-13T06:04:56;18.80;99.90
70762;DHT22;58360;0.000;0.000;2023-10-13T06:07:41;18.80;99.90
70762;DHT22;58360;0.000;0.000;2023-10-13T06:10:25;18.90;99.90
70762;DHT22;58360;0.000;0.000;2023-10-13T06:13:09;18.90;99.90
70762;DHT22;58360;0.000;0.000;2023-10-13T06:15:53;19.00;99.90
70762;DHT22;58360;0.000;0.000;2023-10-13T06:18:37;19.10;99.90
70762;DHT22;58360;0.000;0.000;2023-10-13T06:21:21;19.10;99.90
70762;DHT22;58360;0.000;0.000;2023-10-13T06:24:06;19.10;99.90
70762;DHT22;58360;0.000;0.000;2023-10-13T06:26:50;19.10;99.90
70762;DHT22;58360;0.000;0.000;2023-10-13T06:29:34;19.20;99.90
70762;DHT22;58360;0.000;0.000;2023-10-13T06:32:00;19.10;99.90
70762;DHT22;58360;0.000;0.000;2023-10-13T06:34:30;19.10;99.90
70762;DHT22;58360;0.000;0.000;2023-10-13T06:37:19;19.10;99.90
70762;DHT22;58360;0.000;0.000;2023-10-13T06:39:51;19.00;99.90
70762;DHT22;58360;0.000;0.000;2023-10-13T06:42:18;19.10;99.90
70762;DHT22;58360;0.000;0.000;2023-10-13T06:44:47;19.10;99.90
70762;DHT22;58360;0.000;0.000;2023-10-13T06:47:13;19.00;99.90
70762;DHT22;58360;0.000;0.000;2023-10-13T06:49:41;19.20;99.90
70762;DHT22;58360;0.000;0.000;2023-10-13T06:52:09;19.20;99.90
70762;DHT22;58360;0.000;0.000;2023-10-13T06:54:36;19.10;99.90
70762;DHT22;58360;0.000;0.000;2023-10-13T06:57:02;19.20;99.90
70762;DHT22;58360;0.000;0.000;2023-10-13T06:59:32;19.30;99.90
70762;DHT22;58360;0.000;0.000;2023-10-13T07:02:00;19.30;99.90
70762;DHT22;58360;0.000;0.000;2023-10-13T07:04:31;19.30;99.90
70762;DHT22;58360;0.000;0.000;2023-10-13T07:06:57;19.40;99.90
70762;DHT22;58360;0.000;0.000;2023-10-13T07:09:22;19.50;99.90
70762;DHT22;58360;0.000;0.000;2023-10-13T07:12:00;19.60;99.90
70762;DHT22;58360;0.000;0.000;2023-10-13T07:14:28;19.60;99.90
70762;DHT22;58360;0.000;0.000;2023-10-13T07:16:57;19.50;99.90
70762;DHT22;58360;0.000;0.000;2023-10-13T07:19:25;19.50;99.90
70762;DHT22;58360;0.000;0.000;2023-10-13T07:21:56;19.60;99.90
70762;DHT22;58360;0.000;0.000;2023-10-13T07:24:27;19.70;99.90
70762;DHT22;58360;0.000;0.000;2023-10-13T07:26:58;19.80;99.90
70762;DHT22;58360;0.000;0.000;2023-10-13T07:29:33;19.80;99.90
70762;DHT22;58360;0.000;0.000;2023-10-13T07:32:02;19.90;99.90
70762;DHT22;58360;0.000;0.000;2023-10-13T07:34:38;20.00;99.90
70762;DHT22;58360;0.000;0.000;2023-10-13T07:37:04;20.10;99.90
70762;DHT22;58360;0.000;0.000;2023-10-13T07:39:33;20.20;99.90
70762;DHT22;58360;0.000;0.000;2023-10-13T07:41:59;20.30;99.90
70762;DHT22;58360;0.000;0.000;2023-10-13T07:44:31;20.30;99.90
70762;DHT22;58360;0.000;0.000;2023-10-13T07:46:58;20.50;99.90
70762;DHT22;58360;0.000;0.000;2023-10-13T07:49:31;20.40;99.90
70762;DHT22;58360;0.000;0.000;2023-10-13T07:51:58;20.40;99.90
70762;DHT22;58360;0.000;0.000;2023-10-13T07:54:26;20.50;99.90
70762;DHT22;58360;0.000;0.000;2023-10-13T07:56:52;20.50;99.90
70762;DHT22;58360;0.000;0.000;2023-10-13T07:59:20;20.70;99.90
70762;DHT22;58360;0.000;0.000;2023-10-13T08:01:48;20.90;99.90
70762;DHT22;58360;0.000;0.000;2023-10-13T08:04:32;20.90;99.90
70762;DHT22;58360;0.000;0.000;2023-10-13T08:07:01;21.00;99.90
70762;DHT22;58360;0.000;0.000;2023-10-13T08:09:37;21.10;99.90
70762;DHT22;58360;0.000;0.000;2023-10-13T08:12:06;21.00;99.90
70762;DHT22;58360;0.000;0.000;2023-10-13T08:14:36;21.20;99.10
70762;DHT22;58360;0.000;0.000;2023-10-13T08:17:04;21.20;98.90
70762;DHT22;58360;0.000;0.000;2023-10-13T08:19:35;21.20;99.00
70762;DHT22;58360;0.000;0.000;2023-10-13T08:22:10;21.20;99.60
70762;DHT22;58360;0.000;0.000;2023-10-13T08:24:45;21.30;99.40
70762;DHT22;58360;0.000;0.000;2023-10-13T08:27:11;21.30;99.20
70762;DHT22;58360;0.000;0.000;2023-10-13T08:29:40;21.20;99.70
70762;DHT22;58360;0.000;0.000;2023-10-13T08:34:53;21.30;99.30
70762;DHT22;58360;0.000;0.000;2023-10-13T08:37:19;21.40;99.10
70762;DHT22;58360;0.000;0.000;2023-10-13T08:39:48;21.40;99.00
70762;DHT22;58360;0.000;0.000;2023-10-13T08:42:32;21.50;98.70
70762;DHT22;58360;0.000;0.000;2023-10-13T08:45:20;21.50;98.50
70762;DHT22;58360;0.000;0.000;2023-10-13T08:47:59;21.60;98.90
70762;DHT22;58360;0.000;0.000;2023-10-13T08:50:45;21.70;98.10
70762;DHT22;58360;0.000;0.000;2023-10-13T08:58:33;21.80;97.40
70762;DHT22;58360;0.000;0.000;2023-10-13T09:01:29;21.80;96.60
70762;DHT22;58360;0.000;0.000;2023-10-13T09:04:08;21.80;97.00
70762;DHT22;58360;0.000;0.000;2023-10-13T09:12:26;22.10;96.60
70762;DHT22;58360;0.000;0.000;2023-10-13T09:15:12;22.30;94.90
70762;DHT22;58360;0.000;0.000;2023-10-13T09:17:44;22.40;95.20
70762;DHT22;58360;0.000;0.000;2023-10-13T09:20:16;22.60;94.50
70762;DHT22;58360;0.000;0.000;2023-10-13T09:22:55;22.60;95.30
70762;DHT22;58360;0.000;0.000;2023-10-13T09:25:27;22.60;95.70
70762;DHT22;58360;0.000;0.000;2023-10-13T09:27:58;22.80;95.10
70762;DHT22;58360;0.000;0.000;2023-10-13T09:30:26;22.80;94.10
70762;DHT22;58360;0.000;0.000;2023-10-13T09:33:01;22.70;93.80
70762;DHT22;58360;0.000;0.000;2023-10-13T09:35:42;22.70;93.80
70762;DHT22;58360;0.000;0.000;2023-10-13T09:38:08;22.70;94.00
70762;DHT22;58360;0.000;0.000;2023-10-13T09:40:37;22.60;93.40
70762;DHT22;58360;0.000;0.000;2023-10-13T09:43:11;22.60;94.00
70762;DHT22;58360;0.000;0.000;2023-10-13T09:45:43;22.50;93.30
70762;DHT22;58360;0.000;0.000;2023-10-13T09:48:34;22.40;93.90
70762;DHT22;58360;0.000;0.000;2023-10-13T09:51:00;22.30;94.40
70762;DHT22;58360;0.000;0.000;2023-10-13T09:53:27;22.30;94.00
70762;DHT22;58360;0.000;0.000;2023-10-13T09:55:58;22.50;92.90
70762;DHT22;58360;0.000;0.000;2023-10-13T09:58:36;22.40;93.90
70762;DHT22;58360;0.000;0.000;2023-10-13T10:01:03;22.30;94.50
70762;DHT22;58360;0.000;0.000;2023-10-13T10:03:45;22.30;94.10
70762;DHT22;58360;0.000;0.000;2023-10-13T10:06:31;22.20;94.40
70762;DHT22;58360;0.000;0.000;2023-10-13T10:09:07;22.10;93.80
70762;DHT22;58360;0.000;0.000;2023-10-13T10:11:57;22.10;94.10
70762;DHT22;58360;0.000;0.000;2023-10-13T10:17:08;22.00;93.60
70762;DHT22;58360;0.000;0.000;2023-10-13T10:19:45;22.00;94.00
70762;DHT22;58360;0.000;0.000;2023-10-13T10:22:11;22.10;93.80
70762;DHT22;58360;0.000;0.000;2023-10-13T10:24:43;22.20;93.10
70762;DHT22;58360;0.000;0.000;2023-10-13T10:27:09;22.10;94.10
70762;DHT22;58360;0.000;0.000;2023-10-13T10:29:40;22.20;93.40
70762;DHT22;58360;0.000;0.000;2023-10-13T10:32:13;22.20;93.00
70762;DHT22;58360;0.000;0.000;2023-10-13T10:34:39;22.10;93.90
70762;DHT22;58360;0.000;0.000;2023-10-13T10:37:04;22.10;93.30
70762;DHT22;58360;0.000;0.000;2023-10-13T10:39:34;22.10;93.80
70762;DHT22;58360;0.000;0.000;2023-10-13T10:42:13;22.10;93.10
70762;DHT22;58360;0.000;0.000;2023-10-13T10:44:57;22.20;93.50
70762;DHT22;58360;0.000;0.000;2023-10-13T10:47:31;22.30;93.30
70762;DHT22;58360;0.000;0.000;2023-10-13T10:49:57;22.30;92.60
70762;DHT22;58360;0.000;0.000;2023-10-13T10:52:23;22.40;92.80
70762;DHT22;58360;0.000;0.000;2023-10-13T10:54:58;22.40;92.50
70762;DHT22;58360;0.000;0.000;2023-10-13T10:57:24;22.40;93.00
70762;DHT22;58360;0.000;0.000;2023-10-13T10:59:54;22.50;92.90
70762;DHT22;58360;0.000;0.000;2023-10-13T11:02:36;22.60;92.30
70762;DHT22;58360;0.000;0.000;2023-10-13T11:05:02;22.70;92.10
70762;DHT22;58360;0.000;0.000;2023-10-13T11:07:31;22.70;92.10
70762;DHT22;58360;0.000;0.000;2023-10-13T11:10:06;22.70;92.60
70762;DHT22;58360;0.000;0.000;2023-10-13T11:12:32;22.70;91.50
70762;DHT22;58360;0.000;0.000;2023-10-13T11:15:00;22.90;91.00
70762;DHT22;58360;0.000;0.000;2023-10-13T11:17:25;22.90;91.20
70762;DHT22;58360;0.000;0.000;2023-10-13T11:20:13;22.90;90.90
70762;DHT22;58360;0.000;0.000;2023-10-13T11:22:49;22.90;91.80
70762;DHT22;58360;0.000;0.000;2023-10-13T11:27:48;23.00;91.70
70762;DHT22;58360;0.000;0.000;2023-10-13T11:30:17;23.10;91.60
70762;DHT22;58360;0.000;0.000;2023-10-13T11:32:56;22.90;91.50
70762;DHT22;58360;0.000;0.000;2023-10-13T11:35:22;23.00;90.90
70762;DHT22;58360;0.000;0.000;2023-10-13T11:37:54;23.00;91.60
70762;DHT22;58360;0.000;0.000;2023-10-13T11:40:43;23.00;90.90
70762;DHT22;58360;0.000;0.000;2023-10-13T11:43:12;23.20;90.80
70762;DHT22;58360;0.000;0.000;2023-10-13T11:45:41;23.20;90.20
70762;DHT22;58360;0.000;0.000;2023-10-13T11:48:25;23.30;90.60
70762;DHT22;58360;0.000;0.000;2023-10-13T11:51:05;23.30;90.10
70762;DHT22;58360;0.000;0.000;2023-10-13T11:53:37;23.30;90.10
70762;DHT22;58360;0.000;0.000;2023-10-13T11:56:04;23.40;90.30
70762;DHT22;58360;0.000;0.000;2023-10-13T11:58:38;23.50;90.30
70762;DHT22;58360;0.000;0.000;2023-10-13T12:01:04;23.50;88.30
70762;DHT22;58360;0.000;0.000;2023-10-13T12:03:42;23.60;89.50
70762;DHT22;58360;0.000;0.000;2023-10-13T12:06:26;23.60;89.00
70762;DHT22;58360;0.000;0.000;2023-10-13T12:09:07;23.60;88.50
70762;DHT22;58360;0.000;0.000;2023-10-13T12:11:45;23.80;86.60
70762;DHT22;58360;0.000;0.000;2023-10-13T12:14:11;23.80;88.70
70762;DHT22;58360;0.000;0.000;2023-10-13T12:17:03;23.70;87.00
70762;DHT22;58360;0.000;0.000;2023-10-13T12:19:29;23.70;87.40
70762;DHT22;58360;0.000;0.000;2023-10-13T12:21:55;23.70;86.30
70762;DHT22;58360;0.000;0.000;2023-10-13T12:27:05;23.70;84.50
70762;DHT22;58360;0.000;0.000;2023-10-13T12:29:49;23.60;84.90
70762;DHT22;58360;0.000;0.000;2023-10-13T12:32:17;23.50;85.90
70762;DHT22;58360;0.000;0.000;2023-10-13T12:34:56;23.50;85.80
70762;DHT22;58360;0.000;0.000;2023-10-13T12:37:28;23.40;85.40
70762;DHT22;58360;0.000;0.000;2023-10-13T12:40:13;23.40;85.30
70762;DHT22;58360;0.000;0.000;2023-10-13T12:43:02;23.50;86.00
70762;DHT22;58360;0.000;0.000;2023-10-13T12:45:47;23.40;85.20
70762;DHT22;58360;0.000;0.000;2023-10-13T12:48:31;23.50;84.60
70762;DHT22;58360;0.000;0.000;2023-10-13T12:51:16;23.50;85.80
70762;DHT22;58360;0.000;0.000;2023-10-13T12:54:00;23.50;85.30
70762;DHT22;58360;0.000;0.000;2023-10-13T12:56:45;23.50;85.40
70762;DHT22;58360;0.000;0.000;2023-10-13T12:59:11;23.70;85.00
70762;DHT22;58360;0.000;0.000;2023-10-13T13:01:39;23.60;86.10
70762;DHT22;58360;0.000;0.000;2023-10-13T13:04:07;23.70;85.30
70762;DHT22;58360;0.000;0.000;2023-10-13T13:06:37;23.70;85.00
70762;DHT22;58360;0.000;0.000;2023-10-13T13:09:05;23.80;83.90
70762;DHT22;58360;0.000;0.000;2023-10-13T13:11:35;23.90;84.20
70762;DHT22;58360;0.000;0.000;2023-10-13T13:14:08;23.80;84.10
70762;DHT22;58360;0.000;0.000;2023-10-13T13:16:33;23.80;84.30
70762;DHT22;58360;0.000;0.000;2023-10-13T13:18:59;23.80;86.20
70762;DHT22;58360;0.000;0.000;2023-10-13T13:21:28;23.80;84.00
70762;DHT22;58360;0.000;0.000;2023-10-13T13:23:54;23.90;84.20
70762;DHT22;58360;0.000;0.000;2023-10-13T13:26:23;23.80;85.40
70762;DHT22;58360;0.000;0.000;2023-10-13T13:28:49;23.80;83.10
70762;DHT22;58360;0.000;0.000;2023-10-13T13:31:18;23.80;83.90
70762;DHT22;58360;0.000;0.000;2023-10-13T13:33:44;23.80;84.20
70762;DHT22;58360;0.000;0.000;2023-10-13T13:36:10;23.80;85.70
70762;DHT22;58360;0.000;0.000;2023-10-13T13:38:42;23.80;84.30
70762;DHT22;58360;0.000;0.000;2023-10-13T13:41:11;23.90;83.20
70762;DHT22;58360;0.000;0.000;2023-10-13T13:43:40;24.00;82.70
70762;DHT22;58360;0.000;0.000;2023-10-13T13:46:18;24.00;83.10
70762;DHT22;58360;0.000;0.000;2023-10-13T13:48:44;24.00;82.90
70762;DHT22;58360;0.000;0.000;2023-10-13T13:51:13;24.00;82.70
70762;DHT22;58360;0.000;0.000;2023-10-13T13:53:44;24.10;83.50
70762;DHT22;58360;0.000;0.000;2023-10-13T13:56:11;24.40;82.40
70762;DHT22;58360;0.000;0.000;2023-10-13T13:58:44;24.50;81.80
70762;DHT22;58360;0.000;0.000;2023-10-13T14:01:10;24.50;82.00
70762;DHT22;58360;0.000;0.000;2023-10-13T14:03:47;24.30;82.00
70762;DHT22;58360;0.000;0.000;2023-10-13T14:06:16;24.30;83.30
70762;DHT22;58360;0.000;0.000;2023-10-13T14:08:49;24.20;82.40
70762;DHT22;58360;0.000;0.000;2023-10-13T14:11:17;24.30;83.30
70762;DHT22;58360;0.000;0.000;2023-10-13T14:14:09;24.30;82.20
70762;DHT22;58360;0.000;0.000;2023-10-13T14:16:38;24.30;81.90
70762;DHT22;58360;0.000;0.000;2023-10-13T14:19:03;24.30;83.60
70762;DHT22;58360;0.000;0.000;2023-10-13T14:21:33;24.20;82.60
70762;DHT22;58360;0.000;0.000;2023-10-13T14:24:00;24.10;84.20
70762;DHT22;58360;0.000;0.000;2023-10-13T14:26:27;24.00;84.00
70762;DHT22;58360;0.000;0.000;2023-10-13T14:28:53;24.00;83.40
70762;DHT22;58360;0.000;0.000;2023-10-13T14:31:31;23.90;84.80
70762;DHT22;58360;0.000;0.000;2023-10-13T14:33:57;23.80;84.40
70762;DHT22;58360;0.000;0.000;2023-10-13T14:36:23;23.70;84.40
70762;DHT22;58360;0.000;0.000;2023-10-13T14:38:49;23.60;84.90
70762;DHT22;58360;0.000;0.000;2023-10-13T14:41:15;23.60;85.00
70762;DHT22;58360;0.000;0.000;2023-10-13T14:43:41;23.60;84.30
70762;DHT22;58360;0.000;0.000;2023-10-13T14:48:42;23.50;85.50
70762;DHT22;58360;0.000;0.000;2023-10-13T14:51:10;23.50;85.10
70762;DHT22;58360;0.000;0.000;2023-10-13T14:53:39;23.40;85.40
70762;DHT22;58360;0.000;0.000;2023-10-13T14:56:08;23.40;86.20
70762;DHT22;58360;0.000;0.000;2023-10-13T14:58:34;23.30;87.20
70762;DHT22;58360;0.000;0.000;2023-10-13T15:00:59;23.20;87.10
70762;DHT22;58360;0.000;0.000;2023-10-13T15:03:26;23.20;87.60
70762;DHT22;58360;0.000;0.000;2023-10-13T15:05:51;23.20;87.00
70762;DHT22;58360;0.000;0.000;2023-10-13T15:08:20;23.10;88.10
70762;DHT22;58360;0.000;0.000;2023-10-13T15:10:45;23.10;87.90
70762;DHT22;58360;0.000;0.000;2023-10-13T15:13:11;23.00;87.00
70762;DHT22;58360;0.000;0.000;2023-10-13T15:15:36;23.00;87.20
70762;DHT22;58360;0.000;0.000;2023-10-13T15:18:02;23.00;88.30
70762;DHT22;58360;0.000;0.000;2023-10-13T15:20:28;22.90;88.70
70762;DHT22;58360;0.000;0.000;2023-10-13T15:22:53;22.80;89.10
70762;DHT22;58360;0.000;0.000;2023-10-13T15:25:25;22.80;89.40
70762;DHT22;58360;0.000;0.000;2023-10-13T15:28:00;22.80;88.50
70762;DHT22;58360;0.000;0.000;2023-10-13T15:30:30;22.80;88.50
70762;DHT22;58360;0.000;0.000;2023-10-13T15:33:17;22.60;89.40
70762;DHT22;58360;0.000;0.000;2023-10-13T15:35:45;22.60;89.00
70762;DHT22;58360;0.000;0.000;2023-10-13T15:38:10;22.70;89.10
70762;DHT22;58360;0.000;0.000;2023-10-13T15:40:46;22.70;89.30
70762;DHT22;58360;0.000;0.000;2023-10-13T15:43:11;22.70;89.00
70762;DHT22;58360;0.000;0.000;2023-10-13T15:45:37;22.70;88.90
70762;DHT22;58360;0.000;0.000;2023-10-13T15:48:08;22.60;88.70
70762;DHT22;58360;0.000;0.000;2023-10-13T15:50:39;22.70;88.80
70762;DHT22;58360;0.000;0.000;2023-10-13T15:53:08;22.70;88.80
70762;DHT22;58360;0.000;0.000;2023-10-13T15:55:35;22.70;89.00
70762;DHT22;58360;0.000;0.000;2023-10-13T15:58:04;22.60;89.00
70762;DHT22;58360;0.000;0.000;2023-10-13T16:00:36;22.50;88.90
70762;DHT22;58360;0.000;0.000;2023-10-13T16:03:02;22.50;88.20
70762;DHT22;58360;0.000;0.000;2023-10-13T16:05:35;22.70;88.30
70762;DHT22;58360;0.000;0.000;2023-10-13T16:08:02;22.60;89.00
70762;DHT22;58360;0.000;0.000;2023-10-13T16:10:28;22.60;88.70
70762;DHT22;58360;0.000;0.000;2023-10-13T16:12:54;22.60;90.00
70762;DHT22;58360;0.000;0.000;2023-10-13T16:15:19;22.40;93.50
70762;DHT22;58360;0.000;0.000;2023-10-13T16:17:47;22.00;94.10
70762;DHT22;58360;0.000;0.000;2023-10-13T16:20:12;21.80;95.60
70762;DHT22;58360;0.000;0.000;2023-10-13T16:22:44;21.40;97.20
70762;DHT22;58360;0.000;0.000;2023-10-13T16:25:10;21.20;97.50
70762;DHT22;58360;0.000;0.000;2023-10-13T16:27:37;21.10;98.10
70762;DHT22;58360;0.000;0.000;2023-10-13T16:30:14;20.90;99.20
70762;DHT22;58360;0.000;0.000;2023-10-13T16:32:44;20.70;99.90
70762;DHT22;58360;0.000;0.000;2023-10-13T16:35:15;20.60;99.90
70762;DHT22;58360;0.000;0.000;2023-10-13T16:37:44;20.40;99.90
70762;DHT22;58360;0.000;0.000;2023-10-13T16:40:14;20.40;99.90
70762;DHT22;58360;0.000;0.000;2023-10-13T16:42:39;20.30;99.90
70762;DHT22;58360;0.000;0.000;2023-10-13T16:45:05;20.20;99.90
70762;DHT22;58360;0.000;0.000;2023-10-13T16:47:43;20.30;99.90
70762;DHT22;58360;0.000;0.000;2023-10-13T16:50:12;20.40;99.90
70762;DHT22;58360;0.000;0.000;2023-10-13T16:52:40;20.30;99.90